Time;durP1;ratioP1;P1;durP2;ratioP2;P2;SDS_P1;SDS_P2;PMS_P1;PMS_P2;Temp;Humidity;BMP_temperature;BMP_pressure;BME280_temperature;BME280_humidity;BME280_pressure;Samples;Min_cycle;Max_cycle;Signal;HPM_P1;HPM_P2
2021/12/09 00:01:12;;;;;;;1.13;0.90;;;19.70;46.70;;;;;;2254146;63;20279;-65
2021/12/09 00:03:40;;;;;;;3.45;1.20;;;19.60;46.70;;;;;;2254115;63;20228;-65
2021/12/09 00:06:08;;;;;;;2.03;1.20;;;19.70;46.70;;;;;;2254104;63;20176;-65
2021/12/09 00:08:34;;;;;;;2.47;1.00;;;19.60;46.60;;;;;;2254025;63;20216;-65
2021/12/09 00:11:07;;;;;;;1.77;1.00;;;19.60;46.70;;;;;;2254003;63;20220;-65
2021/12/09 00:13:33;;;;;;;1.98;0.90;;;19.60;46.70;;;;;;2253987;63;20767;-65
2021/12/09 00:15:59;;;;;;;2.65;1.02;;;19.60;46.70;;;;;;2254080;63;20176;-65
2021/12/09 00:18:25;;;;;;;2.45;0.98;;;19.60;46.70;;;;;;2253993;63;20793;-65
2021/12/09 00:20:52;;;;;;;3.03;1.20;;;19.60;46.60;;;;;;2254007;63;20160;-65
2021/12/09 00:23:18;;;;;;;2.15;1.42;;;19.60;46.70;;;;;;2254012;63;20766;-65
2021/12/09 00:25:44;;;;;;;3.17;1.40;;;19.50;46.60;;;;;;2253977;63;20184;-65
2021/12/09 00:28:09;;;;;;;1.77;0.80;;;19.60;46.70;;;;;;2253948;63;20179;-65
2021/12/09 00:30:36;;;;;;;2.88;1.25;;;19.60;46.70;;;;;;2253995;63;20295;-66
2021/12/09 00:33:05;;;;;;;2.08;1.40;;;19.50;46.60;;;;;;2253934;63;20205;-65
2021/12/09 00:35:42;;;;;;;1.27;1.13;;;19.50;46.60;;;;;;2253943;63;20180;-65
2021/12/09 00:38:10;;;;;;;1.83;1.35;;;19.50;46.70;;;;;;2253880;63;20186;-65
2021/12/09 00:40:36;;;;;;;2.25;1.05;;;19.50;46.70;;;;;;2253875;63;20766;-65
2021/12/09 00:43:03;;;;;;;1.65;1.00;;;19.50;46.70;;;;;;2253847;63;20145;-65
2021/12/09 00:45:30;;;;;;;2.15;1.17;;;19.50;46.70;;;;;;2253880;63;20173;-66
2021/12/09 00:47:56;;;;;;;2.08;1.10;;;19.40;46.60;;;;;;2253783;63;20184;-66
2021/12/09 00:50:23;;;;;;;1.88;0.90;;;19.40;46.60;;;;;;2253796;63;20210;-65
2021/12/09 00:52:49;;;;;;;2.03;1.13;;;19.40;46.60;;;;;;2253887;63;20181;-65
2021/12/09 00:55:16;;;;;;;3.08;1.17;;;19.40;46.60;;;;;;2253816;63;20665;-65
2021/12/09 00:57:43;;;;;;;1.92;1.10;;;19.40;46.60;;;;;;2253836;63;20169;-65
2021/12/09 01:00:14;;;;;;;1.88;1.00;;;19.40;46.60;;;;;;2253828;63;20224;-65
2021/12/09 01:02:41;;;;;;;1.63;1.17;;;19.40;46.60;;;;;;2253792;63;20226;-65
2021/12/09 01:05:08;;;;;;;1.85;1.23;;;19.40;46.50;;;;;;2254277;63;20218;-65
2021/12/09 01:07:34;;;;;;;1.70;1.10;;;19.40;46.50;;;;;;2255009;63;20198;-65
2021/12/09 01:10:00;;;;;;;1.77;0.90;;;19.40;46.50;;;;;;2255015;63;20736;-65
2021/12/09 01:12:26;;;;;;;1.17;1.00;;;19.30;46.50;;;;;;2254995;63;20168;-65
2021/12/09 01:14:52;;;;;;;1.45;1.00;;;19.30;46.50;;;;;;2255050;63;20194;-65
2021/12/09 01:17:19;;;;;;;3.03;1.42;;;19.30;46.50;;;;;;2254989;63;20156;-65
2021/12/09 01:19:45;;;;;;;2.42;1.20;;;19.30;46.40;;;;;;2254992;63;20185;-65
2021/12/09 01:22:10;;;;;;;1.70;0.93;;;19.30;46.50;;;;;;2254986;63;20272;-65
2021/12/09 01:24:36;;;;;;;2.50;1.17;;;19.30;46.50;;;;;;2254983;63;20288;-65
2021/12/09 01:27:03;;;;;;;1.67;1.10;;;19.30;46.40;;;;;;2254963;63;20157;-65
2021/12/09 01:29:39;;;;;;;1.27;0.95;;;19.30;46.40;;;;;;2254925;63;20164;-65
2021/12/09 01:32:07;;;;;;;2.88;1.00;;;19.30;46.40;;;;;;2254948;63;20730;-66
2021/12/09 01:34:35;;;;;;;1.10;0.80;;;19.30;46.40;;;;;;2254881;63;20194;-65
2021/12/09 01:37:01;;;;;;;1.95;1.02;;;19.30;46.40;;;;;;2254909;63;20224;-65
2021/12/09 01:39:29;;;;;;;3.08;1.10;;;19.20;46.40;;;;;;2254889;63;20194;-65
2021/12/09 01:41:56;;;;;;;2.55;1.08;;;19.20;46.40;;;;;;2254791;63;20247;-66
2021/12/09 01:44:22;;;;;;;2.15;0.95;;;19.20;46.30;;;;;;2254873;63;20168;-65
2021/12/09 01:46:48;;;;;;;1.60;0.85;;;19.20;46.30;;;;;;2254880;63;20331;-65
2021/12/09 01:49:14;;;;;;;1.55;1.00;;;19.20;46.30;;;;;;2254750;63;20200;-65
2021/12/09 01:51:41;;;;;;;2.03;1.13;;;19.20;46.30;;;;;;2254734;63;20172;-65
2021/12/09 01:54:08;;;;;;;2.30;1.15;;;19.20;46.30;;;;;;2254810;63;20284;-65
2021/12/09 01:56:34;;;;;;;2.00;1.33;;;19.20;46.30;;;;;;2254741;63;20592;-67
2021/12/09 01:59:04;;;;;;;2.60;1.10;;;19.20;46.30;;;;;;2254831;63;20193;-65
2021/12/09 02:01:33;;;;;;;1.83;1.10;;;19.20;46.30;;;;;;2254760;63;20161;-65
2021/12/09 02:04:00;;;;;;;2.20;1.10;;;19.20;46.90;;;;;;2254753;63;20197;-65
2021/12/09 02:06:28;;;;;;;1.67;1.08;;;19.10;46.20;;;;;;2254699;63;20198;-65
2021/12/09 02:08:54;;;;;;;3.63;1.13;;;19.10;46.20;;;;;;2254710;63;20230;-65
2021/12/09 02:11:21;;;;;;;3.05;1.42;;;19.10;46.20;;;;;;2254651;63;20770;-65
2021/12/09 02:13:50;;;;;;;1.77;1.25;;;19.10;46.20;;;;;;2254707;63;20168;-65
2021/12/09 02:16:17;;;;;;;1.90;1.23;;;19.10;46.20;;;;;;2254182;63;20185;-65
2021/12/09 02:18:43;;;;;;;2.60;1.20;;;19.10;46.80;;;;;;2254634;63;20190;-65
2021/12/09 02:21:16;;;;;;;1.73;1.23;;;19.10;46.20;;;;;;2254685;63;20181;-65
2021/12/09 02:23:50;;;;;;;1.50;1.02;;;19.10;46.20;;;;;;2254658;63;20593;-65
2021/12/09 02:26:19;;;;;;;1.93;1.23;;;19.10;46.10;;;;;;2254722;63;20190;-65
2021/12/09 02:28:46;;;;;;;2.30;1.52;;;19.10;46.10;;;;;;2254582;63;20172;-65
2021/12/09 02:31:12;;;;;;;1.88;1.00;;;19.10;46.10;;;;;;2254583;63;20559;-64
2021/12/09 02:33:39;;;;;;;2.25;1.20;;;19.10;46.10;;;;;;2254584;63;20156;-65
2021/12/09 02:36:06;;;;;;;1.85;0.98;;;19.10;46.20;;;;;;2254586;63;20306;-65
2021/12/09 02:38:32;;;;;;;1.60;1.05;;;19.10;46.10;;;;;;2254592;63;20180;-65
2021/12/09 02:40:58;;;;;;;3.00;1.02;;;19.10;46.20;;;;;;2254430;63;20582;-65
2021/12/09 02:43:27;;;;;;;2.42;1.02;;;19.10;46.10;;;;;;2254571;63;20284;-65
2021/12/09 02:45:55;;;;;;;1.75;0.88;;;19.00;46.10;;;;;;2254545;63;20651;-65
2021/12/09 02:48:23;;;;;;;1.92;1.30;;;19.00;46.10;;;;;;2254410;63;20172;-65
2021/12/09 02:50:50;;;;;;;1.75;1.10;;;19.00;46.00;;;;;;2254411;63;20172;-65
2021/12/09 02:53:16;;;;;;;2.00;1.40;;;19.00;46.00;;;;;;2254511;63;20204;-65
2021/12/09 02:55:44;;;;;;;2.78;1.05;;;19.00;46.00;;;;;;2254467;63;20161;-65
2021/12/09 02:58:11;;;;;;;1.85;1.20;;;19.00;46.00;;;;;;2254451;63;20315;-65
2021/12/09 03:01:07;;;;;;;2.90;1.05;;;19.00;46.00;;;;;;2254517;63;20194;-66
2021/12/09 03:03:35;;;;;;;1.58;1.23;;;19.00;46.60;;;;;;2254440;63;20212;-66
2021/12/09 03:06:01;;;;;;;2.15;1.33;;;19.00;46.00;;;;;;2254441;63;20216;-66
2021/12/09 03:08:34;;;;;;;2.55;1.30;;;19.00;46.00;;;;;;2254389;63;20792;-65
2021/12/09 03:11:13;;;;;;;2.15;1.33;;;19.00;46.00;;;;;;2254391;63;20262;-65
2021/12/09 03:13:40;;;;;;;2.00;1.02;;;19.00;45.90;;;;;;2254398;63;20168;-65
2021/12/09 03:16:07;;;;;;;2.88;1.00;;;19.00;45.90;;;;;;2254429;63;20185;-65
2021/12/09 03:18:44;;;;;;;1.80;1.00;;;19.00;45.90;;;;;;2254311;63;20284;-65
2021/12/09 03:21:22;;;;;;;4.10;1.40;;;19.00;45.90;;;;;;2254379;63;20482;-65
2021/12/09 03:23:48;;;;;;;2.50;1.08;;;19.00;45.90;;;;;;2254358;63;20186;-65
2021/12/09 03:26:16;;;;;;;2.20;1.20;;;18.90;45.90;;;;;;2254378;63;20193;-65
2021/12/09 03:28:43;;;;;;;3.30;1.50;;;18.90;45.80;;;;;;2254052;63;20173;-65
2021/12/09 03:31:09;;;;;;;1.58;1.00;;;18.90;45.80;;;;;;2254293;63;20205;-65
2021/12/09 03:33:35;;;;;;;1.70;1.30;;;18.90;45.80;;;;;;2254243;63;20535;-65
2021/12/09 03:36:04;;;;;;;2.40;1.20;;;19.00;45.90;;;;;;2254244;63;20310;-65
2021/12/09 03:38:30;;;;;;;2.35;1.20;;;18.90;45.80;;;;;;2254283;63;20647;-64
2021/12/09 03:40:56;;;;;;;1.58;0.93;;;18.90;45.80;;;;;;2254167;63;20199;-67
2021/12/09 03:43:23;;;;;;;3.40;1.48;;;18.90;45.80;;;;;;2254228;63;20161;-65
2021/12/09 03:45:51;;;;;;;2.20;1.23;;;19.00;45.80;;;;;;2254225;63;20177;-65
2021/12/09 03:48:17;;;;;;;3.03;1.63;;;18.90;45.80;;;;;;2254142;63;20165;-65
2021/12/09 03:50:45;;;;;;;2.92;1.50;;;18.90;45.70;;;;;;2254128;63;20153;-65
2021/12/09 03:53:12;;;;;;;1.60;1.20;;;18.90;45.70;;;;;;2254096;63;20639;-66
2021/12/09 03:55:39;;;;;;;2.20;1.23;;;18.90;45.70;;;;;;2254179;63;20624;-65
2021/12/09 03:58:05;;;;;;;2.47;1.40;;;18.90;45.70;;;;;;2254173;63;20206;-65
2021/12/09 04:00:31;;;;;;;2.65;1.60;;;18.90;45.70;;;;;;2254176;63;20718;-65
2021/12/09 04:02:57;;;;;;;2.35;1.17;;;18.90;45.70;;;;;;2254122;63;20176;-65
2021/12/09 04:05:25;;;;;;;1.80;1.27;;;18.90;45.70;;;;;;2254114;63;20173;-65
2021/12/09 04:07:51;;;;;;;1.75;1.23;;;18.90;45.70;;;;;;2254029;63;20196;-65
2021/12/09 04:10:17;;;;;;;2.67;1.27;;;18.90;45.70;;;;;;2254030;63;20176;-65
2021/12/09 04:12:43;;;;;;;2.72;1.30;;;18.80;45.60;;;;;;2254035;63;20755;-65
2021/12/09 04:15:11;;;;;;;2.38;1.50;;;18.90;45.60;;;;;;2254101;63;20190;-65
2021/12/09 04:17:37;;;;;;;4.57;1.52;;;18.90;45.60;;;;;;2254037;63;20178;-65
2021/12/09 04:20:05;;;;;;;2.33;1.10;;;18.90;45.60;;;;;;2254009;63;20160;-65
2021/12/09 04:22:31;;;;;;;2.38;1.38;;;18.80;45.60;;;;;;2253975;63;20315;-65
2021/12/09 04:24:57;;;;;;;2.15;1.27;;;18.80;45.50;;;;;;2254008;63;20193;-65
2021/12/09 04:27:25;;;;;;;2.28;1.30;;;18.80;45.60;;;;;;2253937;63;20278;-65
2021/12/09 04:29:52;;;;;;;1.52;1.08;;;18.80;45.50;;;;;;2253901;63;20223;-65
2021/12/09 04:32:19;;;;;;;2.20;1.27;;;18.80;45.50;;;;;;2253925;63;20551;-65
2021/12/09 04:34:45;;;;;;;2.03;1.17;;;18.80;45.40;;;;;;2253885;63;20169;-65
2021/12/09 04:37:12;;;;;;;2.92;1.30;;;18.80;45.40;;;;;;2253878;63;20220;-65
2021/12/09 04:39:38;;;;;;;2.90;1.42;;;18.80;45.40;;;;;;2254011;63;20208;-65
2021/12/09 04:42:05;;;;;;;1.80;1.40;;;18.80;45.40;;;;;;2255124;63;20164;-65
2021/12/09 04:44:31;;;;;;;3.42;1.40;;;18.80;45.40;;;;;;2255182;63;20350;-65
2021/12/09 04:47:00;;;;;;;2.88;1.20;;;18.80;45.40;;;;;;2255141;63;20804;-65
2021/12/09 04:49:26;;;;;;;1.67;1.25;;;18.80;45.40;;;;;;2255045;63;20186;-65
2021/12/09 04:51:52;;;;;;;2.47;1.25;;;18.80;45.40;;;;;;2255045;63;20692;-65
2021/12/09 04:54:18;;;;;;;2.40;1.30;;;18.80;45.40;;;;;;2255125;63;20572;-65
2021/12/09 04:56:44;;;;;;;4.05;1.35;;;18.80;45.40;;;;;;2255114;63;20157;-65
2021/12/09 04:59:10;;;;;;;1.30;1.02;;;18.80;45.40;;;;;;2255074;63;20173;-64
2021/12/09 05:01:36;;;;;;;1.73;1.30;;;18.70;45.30;;;;;;2255101;63;20600;-65
2021/12/09 05:04:03;;;;;;;2.10;1.27;;;18.80;45.40;;;;;;2255034;63;20255;-64
2021/12/09 05:06:30;;;;;;;2.17;1.38;;;18.70;45.30;;;;;;2255074;63;20176;-65
2021/12/09 05:08:59;;;;;;;2.20;1.10;;;18.70;45.90;;;;;;2255008;63;20212;-65
2021/12/09 05:13:55;;;;;;;2.10;1.30;;;18.70;45.30;;;;;;2254965;63;20820;-65
2021/12/09 05:16:20;;;;;;;2.22;1.45;;;18.70;45.30;;;;;;2254980;63;20213;-65
2021/12/09 05:18:48;;;;;;;1.58;1.20;;;18.70;45.20;;;;;;2254951;63;20172;-65
2021/12/09 05:21:15;;;;;;;2.67;1.45;;;18.70;45.20;;;;;;2255066;63;20639;-65
2021/12/09 05:23:42;;;;;;;3.17;1.48;;;18.70;45.20;;;;;;2254979;63;20208;-62
2021/12/09 05:26:09;;;;;;;2.40;1.42;;;18.70;45.20;;;;;;2254937;63;20331;-65
2021/12/09 05:28:36;;;;;;;2.92;1.50;;;18.80;45.90;;;;;;2254858;63;20185;-64
2021/12/09 05:33:50;;;;;;;2.10;1.30;;;18.90;45.10;;;;;;2254868;63;20334;-65
2021/12/09 05:36:17;;;;;;;3.20;1.60;;;19.00;45.10;;;;;;2254873;63;20247;-64
2021/12/09 05:38:44;;;;;;;1.77;1.17;;;19.10;45.00;;;;;;2254867;63;20194;-64
2021/12/09 05:41:10;;;;;;;2.22;1.65;;;19.10;44.80;;;;;;2254814;63;20360;-64
2021/12/09 05:43:40;;;;;;;2.13;1.30;;;19.20;44.70;;;;;;2254874;63;20168;-65
2021/12/09 05:46:06;;;;;;;2.13;1.20;;;19.30;44.70;;;;;;2254836;63;20713;-65
2021/12/09 05:48:32;;;;;;;3.92;1.30;;;19.30;44.60;;;;;;2254745;63;20266;-64
2021/12/09 05:50:58;;;;;;;1.42;1.10;;;19.30;44.50;;;;;;2254638;63;20709;-65
2021/12/09 05:53:23;;;;;;;3.05;1.20;;;19.40;44.50;;;;;;2254777;63;20276;-66
2021/12/09 05:55:49;;;;;;;2.42;1.33;;;19.40;44.40;;;;;;2254804;63;20181;-65
2021/12/09 05:58:17;;;;;;;1.70;1.35;;;19.50;44.40;;;;;;2254773;63;20567;-63
2021/12/09 06:00:43;;;;;;;2.90;1.38;;;19.60;44.40;;;;;;2254780;63;20643;-64
2021/12/09 06:03:09;;;;;;;1.73;1.08;;;19.60;44.20;;;;;;2254805;63;20186;-65
2021/12/09 06:05:36;;;;;;;2.15;1.30;;;19.80;44.20;;;;;;2254746;63;20326;-64
2021/12/09 06:08:04;;;;;;;1.80;1.02;;;19.90;44.10;;;;;;2254689;63;20172;-65
2021/12/09 06:10:31;;;;;;;1.05;1.00;;;20.00;43.90;;;;;;2254551;63;20843;-65
2021/12/09 06:12:57;;;;;;;2.28;1.10;;;20.10;43.80;;;;;;2254710;63;20197;-65
2021/12/09 06:15:22;;;;;;;1.80;0.98;;;20.10;43.70;;;;;;2254646;63;20305;-65
2021/12/09 06:17:48;;;;;;;1.50;1.08;;;20.20;43.70;;;;;;2254646;63;20153;-65
2021/12/09 06:20:14;;;;;;;1.80;0.90;;;20.30;43.60;;;;;;2254644;63;20679;-65
2021/12/09 06:22:40;;;;;;;1.88;1.15;;;20.30;43.50;;;;;;2254668;63;20141;-65
2021/12/09 06:25:06;;;;;;;1.98;0.95;;;20.40;43.50;;;;;;2254653;63;20337;-64
2021/12/09 06:27:33;;;;;;;1.88;1.10;;;20.40;43.40;;;;;;2254554;63;20194;-65
2021/12/09 06:29:58;;;;;;;2.50;1.40;;;20.40;43.40;;;;;;2254602;63;20212;-65
2021/12/09 06:32:26;;;;;;;1.98;0.93;;;20.40;43.30;;;;;;2254644;63;20306;-65
2021/12/09 06:34:53;;;;;;;2.17;1.50;;;20.40;43.30;;;;;;2254484;63;20727;-64
2021/12/09 06:37:20;;;;;;;4.25;1.40;;;20.40;43.30;;;;;;2254573;63;20240;-64
2021/12/09 06:39:46;;;;;;;2.40;1.40;;;20.40;43.30;;;;;;2254480;63;20177;-65
2021/12/09 06:42:13;;;;;;;2.42;1.23;;;20.40;43.30;;;;;;2254535;63;20222;-65
2021/12/09 06:44:39;;;;;;;2.20;1.05;;;20.40;43.30;;;;;;2254849;63;20314;-65
2021/12/09 06:47:05;;;;;;;3.00;1.27;;;20.40;43.30;;;;;;2254535;63;20210;-64
2021/12/09 06:49:31;;;;;;;1.13;1.00;;;20.40;43.20;;;;;;2247236;63;20216;-65
2021/12/09 06:51:57;;;;;;;3.05;1.50;;;20.40;43.20;;;;;;2254519;63;20241;-65
2021/12/09 06:54:23;;;;;;;1.65;1.08;;;20.40;43.20;;;;;;2254523;63;20207;-65
2021/12/09 06:56:49;;;;;;;1.33;1.17;;;20.40;43.10;;;;;;2254438;63;20259;-64
2021/12/09 06:59:14;;;;;;;2.40;1.23;;;20.50;43.20;;;;;;2254438;63;20314;-65
2021/12/09 07:01:40;;;;;;;2.30;1.00;;;20.50;43.10;;;;;;2254487;63;20182;-64
2021/12/09 07:04:08;;;;;;;1.88;1.10;;;20.50;43.10;;;;;;2254073;63;20156;-65
2021/12/09 07:06:36;;;;;;;1.88;1.10;;;20.50;43.70;;;;;;2254306;63;20803;-65
2021/12/09 07:09:05;;;;;;;1.83;1.02;;;20.60;43.00;;;;;;2254369;63;20182;-65
2021/12/09 07:11:32;;;;;;;1.92;1.17;;;20.60;43.10;;;;;;2254539;63;20196;-65
2021/12/09 07:13:59;;;;;;;1.65;1.00;;;20.50;43.00;;;;;;2254666;63;20222;-65
2021/12/09 07:16:25;;;;;;;2.85;1.08;;;20.60;43.10;;;;;;2254331;63;20268;-66
2021/12/09 07:18:51;;;;;;;4.03;1.52;;;20.50;43.00;;;;;;2254321;63;20294;-65
2021/12/09 07:21:17;;;;;;;1.88;1.40;;;20.50;43.10;;;;;;2254376;63;20187;-65
2021/12/09 07:23:43;;;;;;;3.03;1.60;;;20.50;43.20;;;;;;2254319;63;20707;-65
2021/12/09 07:26:09;;;;;;;2.78;1.10;;;20.50;43.30;;;;;;2254351;63;20149;-66
2021/12/09 07:28:35;;;;;;;2.78;1.00;;;20.50;43.40;;;;;;2254232;63;20882;-65
2021/12/09 07:31:01;;;;;;;2.83;1.20;;;20.40;43.40;;;;;;2254344;63;20439;-65
2021/12/09 07:33:27;;;;;;;3.63;1.23;;;20.50;43.50;;;;;;2254308;63;20290;-65
2021/12/09 07:35:53;;;;;;;5.45;1.30;;;20.50;43.50;;;;;;2254216;63;20202;-65
2021/12/09 07:38:19;;;;;;;2.97;1.13;;;20.50;43.50;;;;;;2254252;63;20347;-65
2021/12/09 07:40:45;;;;;;;2.80;1.30;;;20.50;43.50;;;;;;2254134;63;20679;-65
2021/12/09 07:43:11;;;;;;;2.88;1.20;;;20.50;43.50;;;;;;2254143;63;20246;-65
2021/12/09 07:45:37;;;;;;;4.53;1.52;;;20.50;43.60;;;;;;2254198;63;20235;-65
2021/12/09 07:48:03;;;;;;;5.45;1.38;;;20.60;43.60;;;;;;2254155;63;20145;-65
2021/12/09 07:50:31;;;;;;;2.45;1.38;;;20.60;43.70;;;;;;2254169;63;20192;-65
2021/12/09 07:52:58;;;;;;;4.35;1.20;;;20.60;43.60;;;;;;2254143;63;20280;-65
2021/12/09 07:55:24;;;;;;;4.60;1.20;;;20.70;43.70;;;;;;2254201;63;20176;-65
2021/12/09 07:57:51;;;;;;;5.32;1.20;;;20.70;43.70;;;;;;2254157;63;20198;-65
2021/12/09 08:00:23;;;;;;;3.92;1.10;;;20.70;43.70;;;;;;2254083;63;20156;-65
2021/12/09 08:02:50;;;;;;;2.92;1.48;;;20.60;43.70;;;;;;2254147;63;20216;-65
2021/12/09 08:05:18;;;;;;;2.42;1.20;;;20.60;43.70;;;;;;2254087;63;20206;-64
2021/12/09 08:07:44;;;;;;;4.47;0.90;;;20.70;43.80;;;;;;2254026;63;20663;-66
2021/12/09 08:10:15;;;;;;;4.65;1.23;;;20.60;43.80;;;;;;2260985;63;20191;-64
2021/12/09 08:12:41;;;;;;;2.45;1.20;;;20.60;43.80;;;;;;2260797;63;20172;-64
2021/12/09 08:15:09;;;;;;;3.85;1.30;;;20.60;43.80;;;;;;2261385;63;20412;-64
2021/12/09 08:20:05;;;;;;;5.32;1.45;;;20.50;43.80;;;;;;2261855;63;20176;-64
2021/12/09 08:22:34;;;;;;;4.93;1.20;;;20.50;43.80;;;;;;2261899;63;20672;-64
2021/12/09 08:25:00;;;;;;;3.05;1.48;;;20.40;43.80;;;;;;2261974;63;20194;-64
2021/12/09 08:27:29;;;;;;;3.38;1.27;;;20.40;43.80;;;;;;2261877;63;20658;-64
2021/12/09 08:29:55;;;;;;;2.03;1.30;;;20.40;43.90;;;;;;2261791;63;20172;-65
2021/12/09 08:32:21;;;;;;;3.03;1.10;;;20.30;43.90;;;;;;2261887;63;20167;-65
2021/12/09 08:34:47;;;;;;;3.85;1.30;;;20.20;43.90;;;;;;2261827;63;20263;-65
2021/12/09 08:37:13;;;;;;;6.72;1.98;;;20.20;44.00;;;;;;2261746;63;20176;-64
2021/12/09 08:39:39;;;;;;;3.42;1.50;;;20.20;44.10;;;;;;2261788;63;20179;-65
2021/12/09 08:42:06;;;;;;;3.78;1.40;;;20.10;44.10;;;;;;2261871;63;20207;-65
2021/12/09 08:44:32;;;;;;;1.83;1.10;;;20.10;44.20;;;;;;2261801;63;20727;-64
2021/12/09 08:46:59;;;;;;;2.40;1.30;;;20.00;44.20;;;;;;2261784;63;20341;-65
2021/12/09 08:49:25;;;;;;;2.88;1.20;;;20.00;44.30;;;;;;2261717;63;20188;-64
2021/12/09 08:51:50;;;;;;;2.40;1.13;;;20.00;44.30;;;;;;2261677;63;20223;-65
2021/12/09 08:54:16;;;;;;;4.32;1.40;;;20.00;44.40;;;;;;2261785;63;20169;-65
2021/12/09 08:56:44;;;;;;;3.58;1.48;;;19.90;44.40;;;;;;2261781;63;20207;-65
2021/12/09 08:59:10;;;;;;;2.03;1.30;;;19.90;44.40;;;;;;2261708;63;20666;-65
2021/12/09 09:01:37;;;;;;;5.30;1.70;;;19.90;44.50;;;;;;2261687;63;20168;-65
2021/12/09 09:04:03;;;;;;;5.07;1.70;;;19.90;44.50;;;;;;2261682;63;20182;-65
2021/12/09 09:06:31;;;;;;;7.75;1.40;;;19.80;44.50;;;;;;2261687;63;20553;-65
2021/12/09 09:08:58;;;;;;;4.47;1.52;;;19.80;44.60;;;;;;2261650;63;20198;-65
2021/12/09 09:11:26;;;;;;;4.60;1.80;;;19.80;44.60;;;;;;2261496;63;20270;-65
2021/12/09 09:13:52;;;;;;;3.55;1.75;;;19.80;44.60;;;;;;2261640;63;20242;-65
2021/12/09 09:16:18;;;;;;;4.75;1.52;;;19.80;44.60;;;;;;2261635;63;20781;-65
2021/12/09 09:18:44;;;;;;;4.43;1.48;;;19.70;44.60;;;;;;2261644;63;20212;-65
2021/12/09 09:21:13;;;;;;;4.35;1.42;;;19.70;44.60;;;;;;2261579;63;20186;-65
2021/12/09 09:23:39;;;;;;;6.72;1.67;;;19.70;44.60;;;;;;2261588;63;20305;-64
2021/12/09 09:26:05;;;;;;;4.20;1.60;;;19.70;44.60;;;;;;2262020;63;20299;-65
2021/12/09 09:28:31;;;;;;;2.42;1.42;;;19.60;44.60;;;;;;2262871;63;20809;-65
2021/12/09 09:30:59;;;;;;;6.75;1.98;;;19.70;44.70;;;;;;2262878;63;20193;-64
2021/12/09 09:33:29;;;;;;;4.07;1.52;;;19.60;44.60;;;;;;2262918;63;20187;-64
2021/12/09 09:35:55;;;;;;;5.32;1.75;;;19.60;44.60;;;;;;2262857;63;20320;-64
2021/12/09 09:38:24;;;;;;;5.53;1.70;;;19.70;44.70;;;;;;2262848;63;20179;-65
2021/12/09 09:41:06;;;;;;;3.30;1.55;;;19.60;44.70;;;;;;2262719;63;20290;-65
2021/12/09 09:43:57;;;;;;;5.70;1.40;;;19.60;44.80;;;;;;2262807;63;20252;-65
2021/12/09 09:46:27;;;;;;;3.25;1.75;;;19.60;44.80;;;;;;2262585;63;20244;-65
2021/12/09 09:48:54;;;;;;;2.50;1.20;;;19.60;44.90;;;;;;2262728;63;20259;-65
2021/12/09 09:51:21;;;;;;;2.25;1.45;;;19.60;44.90;;;;;;2262704;63;20672;-65
2021/12/09 09:53:48;;;;;;;3.50;1.40;;;19.60;45.00;;;;;;2262795;63;20578;-65
2021/12/09 09:56:19;;;;;;;3.33;1.88;;;19.60;45.00;;;;;;2262744;63;20172;-64
2021/12/09 09:58:48;;;;;;;5.25;1.80;;;19.60;45.00;;;;;;2262768;63;20148;-64
2021/12/09 10:01:16;;;;;;;4.25;1.60;;;19.60;45.10;;;;;;2262692;63;20608;-64
2021/12/09 10:03:46;;;;;;;6.22;1.60;;;19.50;45.10;;;;;;2262748;63;20176;-65
2021/12/09 10:06:14;;;;;;;3.80;1.40;;;19.60;45.20;;;;;;2262532;63;20195;-65
2021/12/09 10:08:41;;;;;;;3.92;1.42;;;19.50;45.20;;;;;;2262610;63;20205;-64
2021/12/09 10:11:08;;;;;;;3.83;1.45;;;19.50;45.30;;;;;;2262602;63;20192;-64
2021/12/09 10:13:42;;;;;;;2.60;1.38;;;19.50;45.30;;;;;;2262696;63;20240;-65
2021/12/09 10:16:27;;;;;;;5.10;1.55;;;19.50;45.40;;;;;;2262701;63;20197;-65
2021/12/09 10:18:54;;;;;;;3.45;1.50;;;19.50;45.40;;;;;;2262558;63;20717;-68
2021/12/09 10:21:30;;;;;;;2.83;1.40;;;19.50;45.40;;;;;;2262392;63;20186;-65
2021/12/09 10:23:57;;;;;;;6.63;2.92;;;19.50;45.60;;;;;;2261415;63;20179;-65
2021/12/09 10:26:35;;;;;;;4.70;1.42;;;19.50;45.60;;;;;;2262239;63;20317;-65
2021/12/09 10:29:04;;;;;;;4.50;1.38;;;19.50;45.70;;;;;;2261064;63;20553;-67
2021/12/09 10:31:55;;;;;;;4.15;1.52;;;19.50;45.80;;;;;;2262564;63;20168;-64
2021/12/09 10:34:40;;;;;;;4.28;1.60;;;19.50;45.80;;;;;;2262527;63;20679;-66
2021/12/09 10:37:14;;;;;;;4.17;1.70;;;19.40;45.70;;;;;;2262253;63;20171;-65
2021/12/09 10:39:50;;;;;;;3.53;1.42;;;19.40;45.80;;;;;;2262491;63;20274;-65
2021/12/09 10:42:16;;;;;;;3.08;1.60;;;19.40;45.90;;;;;;2262531;63;20805;-64
2021/12/09 10:44:52;;;;;;;4.57;1.40;;;19.40;46.00;;;;;;2262493;63;20348;-64
2021/12/09 10:47:36;;;;;;;3.97;1.50;;;19.40;46.00;;;;;;2262514;63;20208;-64
2021/12/09 10:50:16;;;;;;;3.97;1.65;;;19.40;46.00;;;;;;2262319;63;20247;-65
2021/12/09 10:52:49;;;;;;;9.80;1.88;;;19.40;45.90;;;;;;2262370;63;20188;-64
2021/12/09 10:55:26;;;;;;;8.73;2.00;;;19.40;46.00;;;;;;2262470;63;20175;-64
2021/12/09 10:58:01;;;;;;;3.63;1.40;;;19.40;46.00;;;;;;2262442;63;20417;-64
2021/12/09 11:00:52;;;;;;;5.65;1.60;;;19.40;46.00;;;;;;2262441;63;20197;-64
2021/12/09 11:03:23;;;;;;;5.18;1.70;;;19.40;46.00;;;;;;2262330;63;20283;-64
2021/12/09 11:05:52;;;;;;;4.50;1.88;;;19.40;46.00;;;;;;2262407;63;20167;-64
2021/12/09 11:08:22;;;;;;;2.63;1.30;;;19.30;45.90;;;;;;2262240;63;20188;-64
2021/12/09 11:10:56;;;;;;;3.20;1.25;;;19.40;46.10;;;;;;2262306;63;20603;-64
2021/12/09 11:13:22;;;;;;;3.75;1.42;;;19.40;46.10;;;;;;2262296;63;20172;-65
2021/12/09 11:15:57;;;;;;;4.95;1.60;;;19.40;46.10;;;;;;2262308;63;20209;-64
2021/12/09 11:18:41;;;;;;;6.65;2.40;;;19.40;46.20;;;;;;2262280;63;20181;-65
2021/12/09 11:21:18;;;;;;;6.88;1.83;;;19.30;46.20;;;;;;2262247;63;20334;-64
2021/12/09 11:23:56;;;;;;;4.50;2.05;;;19.30;46.20;;;;;;2262241;63;20329;-66
2021/12/09 11:26:32;;;;;;;5.70;1.85;;;19.30;46.30;;;;;;2262270;63;20643;-64
2021/12/09 11:29:04;;;;;;;6.53;2.38;;;19.30;46.40;;;;;;2262241;63;20176;-66
2021/12/09 11:31:33;;;;;;;4.82;2.35;;;19.30;46.40;;;;;;2262230;63;20188;-64
2021/12/09 11:34:07;;;;;;;3.55;2.50;;;19.30;46.50;;;;;;2262157;63;20192;-65
2021/12/09 11:36:46;;;;;;;5.50;1.98;;;19.30;46.40;;;;;;2262075;63;20222;-65
2021/12/09 11:39:19;;;;;;;3.97;1.80;;;19.30;47.10;;;;;;2262181;63;20791;-65
2021/12/09 11:41:47;;;;;;;4.55;2.00;;;19.30;46.50;;;;;;2262139;63;20186;-65
2021/12/09 11:44:13;;;;;;;8.43;2.63;;;19.30;46.60;;;;;;2262090;63;20211;-65
2021/12/09 11:46:41;;;;;;;5.90;1.95;;;19.30;46.70;;;;;;2262083;63;20251;-65
2021/12/09 11:49:08;;;;;;;5.20;1.75;;;19.30;46.80;;;;;;2261960;63;20631;-65
2021/12/09 11:51:35;;;;;;;12.18;2.45;;;19.30;47.30;;;;;;2261955;63;20343;-65
2021/12/09 11:54:04;;;;;;;8.25;2.33;;;19.30;46.80;;;;;;2262135;63;20273;-65
2021/12/09 11:56:56;;;;;;;9.30;2.10;;;19.30;47.10;;;;;;2262117;63;20188;-65
2021/12/09 12:11:21;;;;;;;5.55;1.95;;;19.40;47.20;;;;;;2261956;63;20217;-64
2021/12/09 12:13:59;;;;;;;4.43;1.92;;;19.40;47.20;;;;;;2261960;63;20198;-65
2021/12/09 12:17:03;;;;;;;3.85;1.70;;;19.40;47.30;;;;;;2261861;63;20207;-64
2021/12/09 12:23:03;;;;;;;7.32;2.30;;;19.40;47.30;;;;;;2261886;63;20221;-66
2021/12/09 12:34:22;;;;;;;5.78;1.90;;;19.40;47.40;;;;;;2261898;63;20203;-65
2021/12/09 12:42:19;;;;;;;4.55;1.73;;;19.40;47.30;;;;;;2261851;63;20605;-65
2021/12/09 12:48:18;;;;;;;6.83;1.80;;;19.40;47.10;;;;;;2261830;63;20704;-65
2021/12/09 12:50:37;;;;;;;8.05;1.83;;;19.40;47.20;;;;;;2259585;63;20327;-64
2021/12/09 12:53:39;;;;;;;4.95;1.48;;;19.40;47.20;;;;;;2261347;63;20350;-65
2021/12/09 12:56:20;;;;;;;3.05;1.60;;;19.40;47.20;;;;;;2261339;63;20338;-64
2021/12/09 12:59:05;;;;;;;4.85;1.90;;;19.40;47.20;;;;;;2261406;63;20290;-64
2021/12/09 13:01:33;;;;;;;3.97;1.92;;;19.40;47.10;;;;;;2262094;63;20175;-64
2021/12/09 13:04:10;;;;;;;8.23;1.80;;;19.40;47.20;;;;;;2262723;63;20180;-64
2021/12/09 13:06:52;;;;;;;5.43;1.92;;;19.30;47.10;;;;;;2262638;63;20289;-65
2021/12/09 13:09:48;;;;;;;3.35;1.75;;;19.40;47.00;;;;;;2262648;63;20654;-65
2021/12/09 13:12:36;;;;;;;3.13;1.80;;;19.40;47.10;;;;;;2262753;63;20234;-65
2021/12/09 13:15:07;;;;;;;5.03;1.80;;;19.40;47.00;;;;;;2262492;63;20164;-64
2021/12/09 13:17:42;;;;;;;2.97;1.50;;;19.40;47.10;;;;;;2262596;63;20180;-64
2021/12/09 13:20:30;;;;;;;4.95;1.63;;;19.30;47.00;;;;;;2262437;63;20244;-65
2021/12/09 13:23:26;;;;;;;9.05;1.98;;;19.40;47.00;;;;;;2262489;63;20285;-65
2021/12/09 13:26:25;;;;;;;5.53;2.00;;;19.40;47.00;;;;;;2262222;63;20220;-64
2021/12/09 13:29:05;;;;;;;5.53;2.28;;;19.40;47.00;;;;;;2262799;63;20678;-65
2021/12/09 13:31:43;;;;;;;6.25;2.00;;;19.30;47.00;;;;;;2262823;63;20321;-64
2021/12/09 13:34:19;;;;;;;5.70;1.70;;;19.30;47.60;;;;;;2262872;63;20183;-64
2021/12/09 13:37:29;;;;;;;3.88;1.75;;;19.30;47.00;;;;;;2262803;63;20223;-65
2021/12/09 13:40:21;;;;;;;11.23;2.30;;;19.40;47.00;;;;;;2262584;63;20172;-64